createdAt,value
2024-02-27T00:01:51.331Z,91.29
2024-02-27T00:04:17.850Z,92.01
2024-02-27T00:06:45.261Z,91.72
2024-02-27T00:09:16.409Z,91.18
2024-02-27T00:11:44.852Z,91.42
2024-02-27T00:14:11.403Z,90.93
2024-02-27T00:16:38.184Z,90.60
2024-02-27T00:19:04.958Z,91.06
2024-02-27T00:21:31.455Z,90.74
2024-02-27T00:23:58.074Z,90.41
2024-02-27T00:26:24.454Z,90.99
2024-02-27T00:28:51.292Z,91.13
2024-02-27T00:31:17.723Z,90.74
2024-02-27T00:33:44.460Z,90.81
2024-02-27T00:36:10.907Z,90.24
2024-02-27T00:38:37.548Z,91.40
2024-02-27T00:41:04.205Z,91.69
2024-02-27T00:43:30.950Z,91.57
2024-02-27T00:45:57.287Z,91.28
2024-02-27T00:48:23.955Z,91.94
2024-02-27T00:50:50.587Z,91.14
2024-02-27T00:53:18.014Z,91.21
2024-02-27T00:55:44.665Z,91.24
2024-02-27T00:58:13.723Z,90.74
2024-02-27T01:00:40.486Z,90.98
2024-02-27T01:03:06.941Z,91.12
2024-02-27T01:05:33.527Z,91.06
2024-02-27T01:08:00.128Z,91.22
2024-02-27T01:10:26.783Z,90.46
2024-02-27T01:12:53.373Z,90.56
2024-02-27T01:15:19.673Z,90.70
2024-02-27T01:17:46.110Z,91.06
2024-02-27T01:20:12.450Z,90.80
2024-02-27T01:22:39.494Z,91.19
2024-02-27T01:25:05.960Z,90.54
2024-02-27T01:27:32.847Z,90.56
2024-02-27T01:29:59.244Z,90.69
2024-02-27T01:32:25.949Z,90.66
2024-02-27T01:34:52.448Z,90.70
2024-02-27T01:37:19.089Z,90.85
2024-02-27T01:39:45.811Z,91.10
2024-02-27T01:42:14.552Z,90.78
2024-02-27T01:44:47.007Z,90.44
2024-02-27T01:47:13.615Z,90.10
2024-02-27T01:49:40.291Z,90.94
2024-02-27T01:52:07.104Z,91.26
2024-02-27T01:54:34.014Z,90.90
2024-02-27T01:57:00.413Z,90.53
2024-02-27T01:59:26.934Z,90.16
2024-02-27T02:01:53.863Z,90.59
2024-02-27T02:04:20.708Z,90.84
2024-02-27T02:06:48.347Z,91.03
2024-02-27T02:09:14.658Z,90.70
2024-02-27T02:11:43.431Z,90.96
2024-02-27T02:14:09.911Z,90.64
2024-02-27T02:16:36.493Z,90.59
2024-02-27T02:19:03.308Z,90.35
2024-02-27T02:21:30.032Z,90.91
2024-02-27T02:24:00.487Z,90.88
2024-02-27T02:26:28.784Z,90.86
2024-02-27T02:28:55.295Z,90.72
2024-02-27T02:31:21.589Z,90.69
2024-02-27T02:33:48.210Z,89.47
2024-02-27T02:36:14.694Z,90.56
2024-02-27T02:38:41.318Z,89.61
2024-02-27T02:41:07.656Z,90.01
2024-02-27T02:43:34.023Z,90.14
2024-02-27T02:46:00.518Z,90.36
2024-02-27T02:48:26.943Z,90.23
2024-02-27T02:50:53.546Z,89.85
2024-02-27T02:53:20.100Z,91.09
2024-02-27T02:55:46.701Z,90.95
2024-02-27T02:58:13.246Z,90.59
2024-02-27T03:00:39.613Z,90.76
2024-02-27T03:03:06.253Z,90.15
2024-02-27T03:05:32.827Z,90.13
2024-02-27T03:07:59.334Z,90.09
2024-02-27T03:10:25.700Z,90.50
2024-02-27T03:12:52.211Z,90.43
2024-02-27T03:15:18.540Z,89.93
2024-02-27T03:17:45.612Z,90.68
2024-02-27T03:20:12.097Z,90.54
2024-02-27T03:22:38.858Z,89.81
2024-02-27T03:25:07.300Z,89.73
2024-02-27T03:27:33.954Z,90.04
2024-02-27T03:30:00.778Z,89.96
2024-02-27T03:32:27.135Z,90.44
2024-02-27T03:34:53.662Z,90.57
2024-02-27T03:37:20.408Z,89.72
2024-02-27T03:39:46.964Z,90.66
2024-02-27T03:42:13.524Z,90.24
2024-02-27T03:44:43.454Z,89.93
2024-02-27T03:47:10.166Z,90.16
2024-02-27T03:49:36.619Z,90.34
2024-02-27T03:52:03.176Z,89.88
2024-02-27T03:54:29.533Z,89.24
2024-02-27T03:56:55.884Z,90.21
2024-02-27T03:59:22.239Z,90.04
2024-02-27T04:01:52.264Z,90.01
2024-02-27T04:04:18.588Z,90.04
2024-02-27T04:06:45.018Z,90.21
2024-02-27T04:09:11.689Z,90.30
2024-02-27T04:11:38.041Z,89.56
2024-02-27T04:14:05.142Z,90.21
2024-02-27T04:16:31.656Z,89.53
2024-02-27T04:18:58.127Z,90.40
2024-02-27T04:21:24.538Z,90.45
2024-02-27T04:23:51.267Z,90.10
2024-02-27T04:26:17.593Z,90.43
2024-02-27T04:28:44.110Z,90.06
2024-02-27T04:31:10.658Z,90.00
2024-02-27T04:33:37.118Z,90.36
2024-02-27T04:36:03.832Z,90.05
2024-02-27T04:38:30.379Z,90.38
2024-02-27T04:40:57.095Z,90.08
2024-02-27T04:43:23.389Z,90.20
2024-02-27T04:45:50.015Z,90.27
2024-02-27T04:48:16.729Z,90.27
2024-02-27T04:50:43.231Z,90.28
2024-02-27T04:53:09.530Z,90.14
2024-02-27T04:55:36.044Z,90.20
2024-02-27T04:58:02.539Z,90.40
2024-02-27T05:00:29.102Z,90.37
2024-02-27T05:02:55.636Z,89.84
2024-02-27T05:05:22.279Z,90.24
2024-02-27T05:07:48.672Z,89.96
2024-02-27T05:10:15.365Z,89.96
2024-02-27T05:12:41.645Z,89.90
2024-02-27T05:15:08.251Z,89.63
2024-02-27T05:17:35.022Z,89.49
2024-02-27T05:20:01.362Z,89.63
2024-02-27T05:22:27.896Z,89.31
2024-02-27T05:24:54.216Z,89.64
2024-02-27T05:27:20.758Z,89.44
2024-02-27T05:29:47.539Z,89.24
2024-02-27T05:32:14.288Z,89.13
2024-02-27T05:34:40.667Z,89.22
2024-02-27T05:37:07.217Z,89.60
2024-02-27T05:39:33.563Z,89.17
2024-02-27T05:42:00.965Z,89.63
2024-02-27T05:44:27.730Z,89.73
2024-02-27T05:46:54.096Z,89.41
2024-02-27T05:49:20.842Z,89.34
2024-02-27T05:51:47.207Z,88.69
2024-02-27T05:54:13.788Z,88.78
2024-02-27T05:56:40.096Z,88.98
2024-02-27T05:59:06.679Z,88.85
2024-02-27T06:01:33.351Z,89.20
2024-02-27T06:03:59.708Z,88.90
2024-02-27T06:06:26.377Z,87.96
2024-02-27T06:08:52.705Z,88.65
2024-02-27T06:11:19.719Z,88.50
2024-02-27T06:13:46.054Z,88.59
2024-02-27T06:16:12.705Z,88.37
2024-02-27T06:18:43.132Z,88.33
2024-02-27T06:21:29.360Z,88.29
2024-02-27T06:23:55.791Z,88.20
2024-02-27T06:26:22.175Z,88.42
2024-02-27T06:28:49.259Z,87.95
2024-02-27T06:31:15.568Z,87.96
2024-02-27T06:33:42.266Z,87.72
2024-02-27T06:36:08.964Z,88.14
2024-02-27T06:38:35.357Z,87.40
2024-02-27T06:41:01.934Z,87.90
2024-02-27T06:43:28.224Z,87.24
2024-02-27T06:45:55.992Z,87.02
2024-02-27T06:48:22.424Z,87.29
2024-02-27T06:50:52.893Z,87.59
2024-02-27T06:53:19.228Z,86.96
2024-02-27T06:55:46.976Z,87.55
2024-02-27T06:58:13.460Z,87.40
2024-02-27T07:00:40.087Z,86.92
2024-02-27T07:03:06.696Z,86.98
2024-02-27T07:05:39.661Z,87.38
2024-02-27T07:08:11.432Z,86.03
2024-02-27T07:10:39.037Z,86.66
2024-02-27T07:13:10.539Z,86.86
2024-02-27T07:15:37.298Z,86.70
2024-02-27T07:18:05.120Z,86.33
2024-02-27T07:20:32.194Z,86.64
2024-02-27T07:23:00.825Z,85.77
2024-02-27T07:25:27.140Z,86.57
2024-02-27T07:27:53.560Z,85.81
2024-02-27T07:30:20.116Z,86.19
2024-02-27T07:32:46.514Z,85.36
2024-02-27T07:35:13.352Z,85.24
2024-02-27T07:37:40.358Z,86.29
2024-02-27T07:40:07.995Z,84.71
2024-02-27T07:42:34.992Z,85.43
2024-02-27T07:45:01.390Z,83.69
2024-02-27T07:47:27.967Z,85.47
2024-02-27T07:49:55.575Z,85.39
2024-02-27T07:52:22.272Z,84.44
2024-02-27T07:54:48.688Z,85.36
2024-02-27T07:57:15.149Z,85.04
2024-02-27T07:59:41.509Z,84.54
2024-02-27T08:02:08.088Z,84.58
2024-02-27T08:04:34.479Z,83.77
2024-02-27T08:07:01.012Z,85.28
2024-02-27T08:09:27.699Z,85.08
2024-02-27T08:11:54.496Z,85.13
2024-02-27T08:14:20.924Z,85.06
2024-02-27T08:16:47.388Z,84.64
2024-02-27T08:19:14.176Z,84.30
2024-02-27T08:21:40.582Z,84.08
2024-02-27T08:24:10.034Z,83.57
2024-02-27T08:26:36.473Z,83.99
2024-02-27T08:29:02.792Z,83.82
2024-02-27T08:31:29.356Z,82.99
2024-02-27T08:33:57.809Z,83.27
2024-02-27T08:36:27.299Z,83.58
2024-02-27T08:38:53.661Z,84.19
2024-02-27T08:41:22.807Z,82.56
2024-02-27T08:43:50.501Z,82.28
2024-02-27T08:46:18.828Z,83.08
2024-02-27T08:48:46.066Z,83.06
2024-02-27T08:51:12.558Z,83.85
2024-02-27T08:53:39.496Z,82.97
2024-02-27T08:56:07.728Z,82.78
2024-02-27T08:58:37.611Z,82.88
2024-02-27T09:01:04.900Z,83.07
2024-02-27T09:03:32.452Z,83.50
2024-02-27T09:05:59.096Z,81.98
2024-02-27T09:08:25.477Z,82.23
2024-02-27T09:10:51.981Z,82.37
2024-02-27T09:13:18.287Z,82.68
2024-02-27T09:15:44.815Z,82.79
2024-02-27T09:18:11.525Z,82.65
2024-02-27T09:20:38.660Z,82.74
2024-02-27T09:23:04.949Z,81.95
2024-02-27T09:25:31.224Z,82.39
2024-02-27T09:27:57.583Z,82.83
2024-02-27T09:30:24.272Z,81.95
2024-02-27T09:32:54.458Z,82.88
2024-02-27T09:35:20.868Z,82.95
2024-02-27T09:37:47.254Z,81.73
2024-02-27T09:40:13.847Z,81.35
2024-02-27T09:42:40.278Z,81.61
2024-02-27T09:45:08.340Z,82.78
2024-02-27T09:47:40.654Z,82.41
2024-02-27T09:50:09.083Z,82.71
2024-02-27T09:52:36.758Z,82.01
2024-02-27T09:55:03.317Z,82.41
2024-02-27T09:57:30.330Z,80.83
2024-02-27T09:59:57.180Z,80.43
2024-02-27T10:02:23.751Z,80.60
2024-02-27T10:04:50.786Z,80.90
2024-02-27T10:07:19.465Z,81.04
2024-02-27T10:09:46.642Z,81.73
2024-02-27T10:12:14.752Z,81.95
2024-02-27T10:14:41.540Z,80.89
2024-02-27T10:17:08.727Z,81.37
2024-02-27T10:19:36.422Z,80.98
2024-02-27T10:22:03.885Z,81.41
2024-02-27T10:24:30.514Z,81.30
2024-02-27T10:26:57.125Z,81.98
2024-02-27T10:29:24.075Z,82.02
2024-02-27T10:31:51.710Z,81.78
2024-02-27T10:34:19.291Z,80.81
2024-02-27T10:36:46.086Z,81.66
2024-02-27T10:39:12.595Z,81.88
2024-02-27T10:41:40.167Z,81.22
2024-02-27T10:44:14.284Z,80.32
2024-02-27T10:46:41.598Z,81.70
2024-02-27T10:49:10.001Z,81.33
2024-02-27T10:51:38.058Z,81.33
2024-02-27T10:54:05.461Z,81.32
2024-02-27T10:56:32.204Z,81.72
2024-02-27T10:58:58.541Z,80.76
2024-02-27T11:01:28.516Z,81.48
2024-02-27T11:03:55.369Z,82.08
2024-02-27T11:06:23.676Z,82.21
2024-02-27T11:08:57.056Z,80.45
2024-02-27T11:11:25.687Z,80.81
2024-02-27T11:13:53.359Z,81.48
2024-02-27T11:16:22.447Z,80.91
2024-02-27T11:18:53.188Z,81.69
2024-02-27T11:21:21.213Z,79.49
2024-02-27T11:23:47.538Z,80.47
2024-02-27T11:26:15.284Z,80.71
2024-02-27T11:28:42.769Z,81.01
2024-02-27T11:31:09.501Z,80.40
2024-02-27T11:33:49.033Z,79.75
2024-02-27T11:36:15.842Z,79.94
2024-02-27T11:38:45.095Z,80.20
2024-02-27T11:41:23.053Z,79.86
2024-02-27T11:43:50.470Z,80.65
2024-02-27T11:46:32.162Z,80.93
2024-02-27T11:49:00.082Z,81.21
2024-02-27T11:51:38.948Z,81.04
2024-02-27T11:54:12.086Z,81.62
2024-02-27T11:56:41.609Z,81.25
2024-02-27T11:59:12.686Z,81.33
2024-02-27T12:01:39.073Z,80.86
2024-02-27T12:04:10.649Z,81.58
2024-02-27T12:06:37.103Z,81.38
2024-02-27T12:09:03.871Z,80.74
2024-02-27T12:11:30.422Z,81.47
2024-02-27T12:13:57.210Z,80.17
2024-02-27T12:16:24.716Z,80.14
2024-02-27T12:18:51.655Z,81.04
2024-02-27T12:21:33.813Z,80.47
2024-02-27T12:24:09.675Z,79.39
2024-02-27T12:26:36.335Z,79.64
2024-02-27T12:29:02.961Z,80.73
2024-02-27T12:31:32.744Z,80.35
2024-02-27T12:34:03.726Z,79.86
2024-02-27T12:36:32.346Z,80.29
2024-02-27T12:38:59.361Z,79.02
2024-02-27T12:41:26.033Z,79.67
2024-02-27T12:43:52.876Z,80.05
2024-02-27T12:46:20.173Z,79.88
2024-02-27T12:48:48.772Z,80.65
2024-02-27T12:51:16.244Z,78.54
2024-02-27T12:53:43.302Z,78.92
2024-02-27T12:56:16.246Z,80.47
2024-02-27T12:58:42.693Z,80.08
2024-02-27T13:01:09.324Z,78.86
2024-02-27T13:03:37.045Z,78.97
2024-02-27T13:06:05.915Z,79.92
2024-02-27T13:08:32.710Z,80.37
2024-02-27T13:10:59.199Z,80.08
2024-02-27T13:13:30.752Z,80.21
2024-02-27T13:15:57.118Z,79.25
2024-02-27T13:18:23.655Z,79.82
2024-02-27T13:20:50.186Z,80.56
2024-02-27T13:23:24.578Z,80.54
2024-02-27T13:25:59.185Z,80.04
2024-02-27T13:28:28.252Z,79.73
2024-02-27T13:30:54.920Z,79.88
2024-02-27T13:33:21.485Z,79.13
2024-02-27T13:35:48.085Z,80.22
2024-02-27T13:38:14.379Z,78.99
2024-02-27T13:40:40.783Z,80.39
2024-02-27T13:43:07.402Z,79.53
2024-02-27T13:45:33.794Z,81.01
2024-02-27T13:48:00.474Z,81.01
2024-02-27T13:50:26.877Z,80.98
2024-02-27T13:52:53.386Z,79.91
2024-02-27T13:55:19.670Z,79.70
2024-02-27T13:57:46.271Z,79.75
2024-02-27T14:00:13.096Z,81.74
2024-02-27T14:02:39.720Z,82.30
2024-02-27T14:05:06.279Z,81.78
2024-02-27T14:07:32.621Z,81.86
2024-02-27T14:09:59.197Z,81.52
2024-02-27T14:12:25.861Z,80.34
2024-02-27T14:14:52.164Z,81.47
2024-02-27T14:17:18.671Z,81.70
2024-02-27T14:19:45.825Z,81.68
2024-02-27T14:22:12.268Z,81.95
2024-02-27T14:24:39.038Z,81.24
2024-02-27T14:27:05.792Z,82.63
2024-02-27T14:29:32.117Z,81.52
2024-02-27T14:31:58.579Z,81.57
2024-02-27T14:34:25.694Z,81.34
2024-02-27T14:36:52.493Z,80.77
2024-02-27T14:39:20.889Z,80.71
2024-02-27T14:41:47.330Z,81.56
2024-02-27T14:44:13.851Z,81.40
2024-02-27T14:46:41.400Z,81.63
2024-02-27T14:49:07.973Z,81.67
2024-02-27T14:51:34.388Z,81.06
2024-02-27T14:54:00.765Z,81.24
2024-02-27T14:56:27.063Z,80.78
2024-02-27T14:58:53.586Z,80.77
2024-02-27T15:01:20.072Z,80.84
2024-02-27T15:03:46.573Z,81.95
2024-02-27T15:06:13.897Z,81.28
2024-02-27T15:08:40.347Z,80.77
2024-02-27T15:11:08.940Z,81.47
2024-02-27T15:13:35.430Z,81.52
2024-02-27T15:16:02.072Z,82.43
2024-02-27T15:18:28.464Z,81.54
2024-02-27T15:21:00.057Z,81.46
2024-02-27T15:23:26.493Z,81.96
2024-02-27T15:25:54.456Z,82.40
2024-02-27T15:28:21.137Z,81.94
2024-02-27T15:30:47.537Z,81.76
2024-02-27T15:33:14.447Z,81.38
2024-02-27T15:35:43.529Z,82.63
2024-02-27T15:38:10.161Z,82.17
2024-02-27T15:40:36.483Z,82.18
2024-02-27T15:43:03.005Z,82.53
2024-02-27T15:45:29.589Z,82.33
2024-02-27T15:47:56.195Z,82.79
2024-02-27T15:50:22.601Z,82.19
2024-02-27T15:52:48.910Z,82.73
2024-02-27T15:55:18.195Z,83.02
2024-02-27T15:57:44.583Z,82.93
2024-02-27T16:00:11.774Z,82.93
2024-02-27T16:02:38.237Z,84.00
2024-02-27T16:05:07.002Z,82.84
2024-02-27T16:07:35.579Z,82.91
2024-02-27T16:10:08.001Z,83.73
2024-02-27T16:12:36.843Z,82.59
2024-02-27T16:15:05.964Z,82.84
2024-02-27T16:17:32.588Z,83.16
2024-02-27T16:19:59.104Z,83.02
2024-02-27T16:22:26.017Z,83.46
2024-02-27T16:24:52.415Z,83.13
2024-02-27T16:27:18.828Z,83.58
2024-02-27T16:29:45.705Z,82.50
2024-02-27T16:32:12.009Z,83.14
2024-02-27T16:34:38.692Z,82.02
2024-02-27T16:37:05.320Z,83.74
2024-02-27T16:39:31.868Z,83.85
2024-02-27T16:41:58.346Z,83.21
2024-02-27T16:44:24.713Z,83.99
2024-02-27T16:46:51.402Z,83.41
2024-02-27T16:49:17.770Z,83.66
2024-02-27T16:51:44.216Z,83.38
2024-02-27T16:54:10.617Z,83.39
2024-02-27T16:56:37.536Z,83.19
2024-02-27T16:59:03.840Z,84.61
2024-02-27T17:01:30.418Z,84.17
2024-02-27T17:03:56.891Z,84.03
2024-02-27T17:06:27.689Z,84.28
2024-02-27T17:08:54.370Z,83.94
2024-02-27T17:11:20.739Z,84.05
2024-02-27T17:13:47.361Z,84.47
2024-02-27T17:16:13.904Z,84.58
2024-02-27T17:18:40.395Z,84.11
2024-02-27T17:21:07.195Z,84.16
2024-02-27T17:23:33.536Z,83.74
2024-02-27T17:26:01.080Z,83.60
2024-02-27T17:28:27.686Z,83.73
2024-02-27T17:30:54.285Z,84.75
2024-02-27T17:33:22.451Z,84.46
2024-02-27T17:35:48.836Z,84.52
2024-02-27T17:38:15.444Z,84.37
2024-02-27T17:40:42.088Z,84.75
2024-02-27T17:43:08.702Z,84.85
2024-02-27T17:45:35.435Z,84.58
2024-02-27T17:48:02.038Z,84.35
2024-02-27T17:50:28.642Z,85.56
2024-02-27T17:52:55.184Z,85.25
2024-02-27T17:55:21.612Z,84.49
2024-02-27T17:57:48.178Z,84.13
2024-02-27T18:00:14.706Z,85.59
2024-02-27T18:02:41.704Z,84.32
2024-02-27T18:05:08.256Z,84.64
2024-02-27T18:07:34.850Z,84.93
2024-02-27T18:10:01.622Z,84.94
2024-02-27T18:12:29.195Z,85.26
2024-02-27T18:14:57.119Z,85.35
2024-02-27T18:17:24.373Z,85.08
2024-02-27T18:19:50.834Z,85.12
2024-02-27T18:22:17.554Z,84.50
2024-02-27T18:24:43.925Z,84.95
2024-02-27T18:27:10.487Z,85.24
2024-02-27T18:29:36.956Z,85.03
2024-02-27T18:32:03.820Z,84.77
2024-02-27T18:34:30.150Z,85.19
2024-02-27T18:36:56.811Z,85.60
2024-02-27T18:39:24.480Z,84.84
2024-02-27T18:41:50.854Z,84.83
2024-02-27T18:44:17.293Z,85.14
2024-02-27T18:46:43.576Z,84.70
2024-02-27T18:49:10.322Z,84.92
2024-02-27T18:51:41.484Z,85.46
2024-02-27T18:54:08.144Z,85.63
2024-02-27T18:56:34.842Z,85.68
2024-02-27T18:59:01.160Z,85.46
2024-02-27T19:01:27.652Z,85.62
2024-02-27T19:03:54.026Z,86.13
2024-02-27T19:06:20.745Z,85.75
2024-02-27T19:08:48.519Z,85.20
2024-02-27T19:11:15.063Z,85.53
2024-02-27T19:13:41.938Z,85.42
2024-02-27T19:16:08.569Z,85.63
2024-02-27T19:18:37.873Z,85.20
2024-02-27T19:21:04.676Z,85.53
2024-02-27T19:23:31.229Z,85.35
2024-02-27T19:25:58.622Z,85.48
2024-02-27T19:28:25.172Z,85.51
2024-02-27T19:30:51.532Z,84.82
2024-02-27T19:33:19.858Z,85.26
2024-02-27T19:35:46.233Z,85.47
2024-02-27T19:38:18.449Z,85.21
2024-02-27T19:40:45.858Z,85.33
2024-02-27T19:43:12.317Z,85.24
2024-02-27T19:45:40.605Z,85.06
2024-02-27T19:50:35.014Z,85.76
2024-02-27T19:53:01.554Z,85.51
2024-02-27T19:55:28.130Z,85.06
2024-02-27T19:57:54.461Z,85.03
2024-02-27T20:00:21.042Z,85.54
2024-02-27T20:02:47.427Z,85.26
2024-02-27T20:05:14.173Z,85.60
2024-02-27T20:07:40.692Z,85.61
2024-02-27T20:10:08.246Z,85.15
2024-02-27T20:12:36.433Z,85.21
2024-02-27T20:15:03.154Z,85.86
2024-02-27T20:17:29.472Z,85.81
2024-02-27T20:19:56.012Z,85.56
2024-02-27T20:22:22.339Z,85.61
2024-02-27T20:24:48.720Z,86.46
2024-02-27T20:27:15.286Z,86.14
2024-02-27T20:29:55.666Z,85.66
2024-02-27T20:32:25.751Z,85.89
2024-02-27T20:34:52.029Z,85.53
2024-02-27T20:37:18.692Z,86.06
2024-02-27T20:39:45.057Z,86.05
2024-02-27T20:42:11.597Z,85.85
2024-02-27T20:44:38.119Z,86.63
2024-02-27T20:47:04.603Z,86.88
2024-02-27T20:49:31.298Z,86.36
2024-02-27T20:51:57.833Z,86.43
2024-02-27T20:54:24.478Z,86.23
2024-02-27T20:56:50.905Z,86.78
2024-02-27T21:39:39.532Z,39.58
2024-02-27T21:42:06.111Z,43.97
2024-02-27T21:44:33.128Z,48.17
2024-02-27T21:46:59.860Z,51.87
2024-02-27T21:49:26.537Z,55.84
2024-02-27T21:51:59.495Z,58.66
2024-02-27T21:54:30.288Z,61.55
2024-02-27T21:56:57.016Z,63.73
2024-02-27T21:59:23.680Z,65.66
2024-02-27T22:01:50.204Z,67.34
2024-02-27T22:04:16.943Z,68.51
2024-02-27T22:06:43.557Z,69.99
2024-02-27T22:09:11.232Z,71.85
2024-02-27T22:11:38.089Z,72.45
2024-02-27T22:14:04.796Z,73.42
2024-02-27T22:16:31.444Z,73.86
2024-02-27T22:18:58.175Z,74.68
2024-02-27T22:21:24.699Z,75.16
2024-02-27T22:23:51.114Z,75.66
2024-02-27T22:26:17.638Z,76.12
2024-02-27T22:28:44.029Z,76.75
2024-02-27T22:31:10.679Z,76.94
2024-02-27T22:33:37.147Z,77.17
2024-02-27T22:36:03.836Z,77.69
